createdAt,value
2018-10-21T00:02:02.837Z,15.93
2018-10-21T00:04:31.691Z,14.63
2018-10-21T00:07:00.541Z,15.45
2018-10-21T00:09:29.377Z,13.93
2018-10-21T00:11:58.204Z,14.67
2018-10-21T00:14:27.790Z,14.47
2018-10-21T00:16:56.628Z,17.23
2018-10-21T00:19:25.475Z,15.43
2018-10-21T00:21:54.319Z,14.70
2018-10-21T00:24:23.163Z,16.93
2018-10-21T00:26:52.748Z,15.60
2018-10-21T00:29:21.576Z,17.23
2018-10-21T00:31:50.411Z,17.63
2018-10-21T00:34:19.245Z,15.23
2018-10-21T00:36:48.082Z,17.10
2018-10-21T00:39:16.947Z,15.73
2018-10-21T00:41:45.753Z,17.30
2018-10-21T00:44:14.591Z,15.27
2018-10-21T00:46:43.437Z,15.03
2018-10-21T00:49:12.277Z,15.30
2018-10-21T00:51:41.860Z,18.53
2018-10-21T00:54:10.692Z,17.13
2018-10-21T00:56:39.524Z,18.20
2018-10-21T00:59:08.355Z,19.37
2018-10-21T01:01:37.202Z,16.33
2018-10-21T01:04:06.107Z,15.23
2018-10-21T01:06:35.608Z,16.67
2018-10-21T01:09:04.503Z,14.00
2018-10-21T01:11:33.267Z,16.80
2018-10-21T01:14:02.110Z,15.87
2018-10-21T01:16:31.568Z,18.07
2018-10-21T01:19:00.399Z,17.13
2018-10-21T01:21:29.229Z,15.50
2018-10-21T01:23:58.060Z,16.30
2018-10-21T01:26:26.904Z,14.70
2018-10-21T01:28:55.742Z,15.53
2018-10-21T01:31:24.598Z,15.57
2018-10-21T01:33:53.424Z,18.83
2018-10-21T01:36:23.305Z,15.87
2018-10-21T01:38:51.844Z,18.50
2018-10-21T01:41:20.677Z,15.90
2018-10-21T01:43:49.522Z,16.57
2018-10-21T01:46:18.381Z,18.47
2018-10-21T01:48:47.226Z,17.23
2018-10-21T01:51:16.075Z,17.80
2018-10-21T01:53:45.630Z,15.87
2018-10-21T01:56:14.468Z,16.90
2018-10-21T01:58:44.044Z,17.10
2018-10-21T02:01:13.476Z,17.37
2018-10-21T02:03:43.054Z,15.53
2018-10-21T02:06:11.876Z,15.97
2018-10-21T02:08:40.713Z,15.60
2018-10-21T02:11:09.546Z,15.43
2018-10-21T02:13:39.162Z,17.00
2018-10-21T02:16:08.011Z,16.03
2018-10-21T02:18:36.843Z,14.07
2018-10-21T02:21:05.743Z,15.07
2018-10-21T02:23:34.508Z,17.27
2018-10-21T02:26:04.111Z,15.13
2018-10-21T02:28:32.909Z,18.85
2018-10-21T02:31:01.750Z,16.37
2018-10-21T02:33:30.754Z,15.83
2018-10-21T02:35:59.486Z,17.33
2018-10-21T02:38:28.262Z,15.73
2018-10-21T02:43:46.168Z,18.00
2018-10-21T02:46:14.997Z,16.13
2018-10-21T02:48:44.575Z,15.63
2018-10-21T02:51:13.481Z,15.10
2018-10-21T02:53:42.237Z,15.70
2018-10-21T02:56:11.071Z,17.03
2018-10-21T02:58:39.899Z,15.90
2018-10-21T03:01:08.730Z,16.47
2018-10-21T03:03:37.569Z,16.20
2018-10-21T03:06:06.405Z,18.27
2018-10-21T03:08:35.988Z,14.90
2018-10-21T03:11:04.824Z,18.67
2018-10-21T03:13:34.416Z,15.53
2018-10-21T03:16:03.990Z,20.10
2018-10-21T03:18:33.613Z,17.95
2018-10-21T03:21:02.528Z,16.53
2018-10-21T03:23:31.292Z,15.77
2018-10-21T03:26:00.137Z,17.13
2018-10-21T03:28:28.974Z,12.80
2018-10-21T03:30:57.803Z,18.40
2018-10-21T03:33:26.789Z,17.47
2018-10-21T03:35:55.492Z,17.23
2018-10-21T03:38:24.355Z,18.77
2018-10-21T03:40:53.147Z,16.40
2018-10-21T03:43:22.722Z,15.30
2018-10-21T03:45:51.547Z,15.63
2018-10-21T03:48:20.393Z,16.90
2018-10-21T03:50:49.233Z,15.00
2018-10-21T03:53:18.068Z,16.80
2018-10-21T03:55:46.908Z,15.63
2018-10-21T03:58:15.766Z,16.27
2018-10-21T04:00:44.590Z,15.57
2018-10-21T04:03:13.427Z,17.60
2018-10-21T04:05:42.252Z,16.17
2018-10-21T04:08:11.825Z,16.23
2018-10-21T04:10:40.655Z,15.53
2018-10-21T04:13:09.499Z,15.93
2018-10-21T04:15:38.328Z,15.83
2018-10-21T04:18:07.917Z,15.43
2018-10-21T04:20:36.755Z,16.03
2018-10-21T04:23:05.593Z,18.37
2018-10-21T04:25:34.425Z,16.83
2018-10-21T04:28:03.311Z,15.60
2018-10-21T04:30:32.095Z,15.53
2018-10-21T04:33:00.929Z,15.50
2018-10-21T04:35:29.839Z,17.43
2018-10-21T04:38:05.969Z,16.63
2018-10-21T04:40:34.794Z,15.03
2018-10-21T04:43:04.379Z,16.00
2018-10-21T04:45:33.802Z,17.40
2018-10-21T04:48:02.635Z,17.20
2018-10-21T04:50:31.513Z,17.62
2018-10-21T04:53:00.349Z,16.37
2018-10-21T04:55:29.192Z,16.20
2018-10-21T04:57:58.026Z,15.40
2018-10-21T05:00:26.859Z,15.87
2018-10-21T05:02:55.688Z,16.50
2018-10-21T05:05:24.521Z,15.50
2018-10-21T05:07:54.107Z,16.23
2018-10-21T05:10:22.935Z,16.20
2018-10-21T05:12:51.809Z,17.70
2018-10-21T05:15:20.678Z,14.30
2018-10-21T05:17:49.453Z,15.70
2018-10-21T05:20:18.293Z,16.33
2018-10-21T05:22:47.134Z,16.20
2018-10-21T05:25:15.965Z,16.43
2018-10-21T05:27:44.801Z,15.70
2018-10-21T05:30:13.627Z,16.10
2018-10-21T05:32:43.203Z,15.73
2018-10-21T05:35:12.048Z,15.90
2018-10-21T05:37:40.922Z,15.67
2018-10-21T05:40:09.753Z,17.60
2018-10-21T05:42:38.548Z,16.90
2018-10-21T05:45:07.387Z,16.83
2018-10-21T05:47:36.224Z,17.27
2018-10-21T05:50:05.063Z,17.10
2018-10-21T05:52:33.897Z,16.80
2018-10-21T05:55:02.970Z,18.63
2018-10-21T05:57:32.301Z,19.30
2018-10-21T06:00:01.160Z,18.83
2018-10-21T06:02:29.999Z,17.30
2018-10-21T06:04:59.437Z,18.83
2018-10-21T06:07:28.267Z,17.13
2018-10-21T06:09:57.154Z,17.07
2018-10-21T06:12:25.946Z,17.53
2018-10-21T06:14:54.781Z,16.83
2018-10-21T06:17:24.351Z,17.27
2018-10-21T06:19:53.185Z,16.07
2018-10-21T06:22:22.018Z,17.33
2018-10-21T06:24:50.863Z,19.43
2018-10-21T06:27:19.713Z,22.00
2018-10-21T06:29:48.573Z,17.63
2018-10-21T06:32:17.406Z,20.00
2018-10-21T06:34:47.022Z,20.35
2018-10-21T06:37:15.861Z,18.50
2018-10-21T06:39:44.687Z,19.07
2018-10-21T06:42:14.270Z,18.83
2018-10-21T06:44:43.116Z,17.70
2018-10-21T06:47:11.950Z,17.73
2018-10-21T06:49:40.948Z,16.27
2018-10-21T06:52:09.783Z,18.10
2018-10-21T06:54:38.625Z,10.00
2018-10-21T06:57:07.501Z,19.53
2018-10-21T06:59:36.297Z,19.23
2018-10-21T07:02:05.132Z,17.97
2018-10-21T07:04:33.996Z,17.17
2018-10-21T07:07:02.802Z,18.83
2018-10-21T07:09:31.678Z,21.17
2018-10-21T07:12:00.571Z,19.50
2018-10-21T07:14:29.439Z,18.40
2018-10-21T07:16:58.277Z,19.13
2018-10-21T07:19:27.118Z,16.67
2018-10-21T07:21:56.001Z,19.53
2018-10-21T07:24:24.778Z,18.60
2018-10-21T07:26:53.652Z,18.80
2018-10-21T07:29:22.500Z,19.47
2018-10-21T07:31:51.343Z,18.53
2018-10-21T07:34:20.292Z,18.97
2018-10-21T07:36:49.019Z,20.37
2018-10-21T07:39:17.865Z,20.98
2018-10-21T07:41:47.438Z,19.33
2018-10-21T07:44:16.275Z,20.13
2018-10-21T07:46:45.114Z,20.27
2018-10-21T07:49:14.005Z,20.30
2018-10-21T07:51:42.790Z,19.87
2018-10-21T07:54:11.615Z,20.20
2018-10-21T07:56:50.680Z,21.90
2018-10-21T07:59:19.517Z,21.97
2018-10-21T08:01:48.368Z,20.33
2018-10-21T08:04:17.309Z,20.77
2018-10-21T08:07:03.849Z,23.23
2018-10-21T08:09:32.692Z,23.90
2018-10-21T08:12:02.280Z,24.00
2018-10-21T08:14:31.157Z,23.77
2018-10-21T08:16:59.977Z,23.57
2018-10-21T08:19:28.850Z,21.27
2018-10-21T08:21:57.755Z,23.67
2018-10-21T08:24:26.559Z,23.30
2018-10-21T08:26:55.405Z,23.87
2018-10-21T08:29:24.228Z,22.07
2018-10-21T08:31:53.067Z,20.47
2018-10-21T08:34:21.891Z,20.97
2018-10-21T08:36:50.728Z,21.40
2018-10-21T08:39:19.580Z,24.03
2018-10-21T08:41:48.406Z,22.63
2018-10-21T08:44:17.236Z,21.33
2018-10-21T08:46:46.117Z,21.37
2018-10-21T08:49:15.036Z,22.23
2018-10-21T08:51:43.739Z,20.30
2018-10-21T08:54:12.647Z,21.20
2018-10-21T08:56:41.457Z,21.37
2018-10-21T08:59:10.288Z,22.87
2018-10-21T09:01:39.126Z,22.77
2018-10-21T09:04:07.994Z,20.23
2018-10-21T09:06:36.799Z,23.20
2018-10-21T09:09:05.647Z,20.63
2018-10-21T09:11:34.500Z,21.47
2018-10-21T09:14:03.332Z,21.43
2018-10-21T09:16:32.967Z,21.77
2018-10-21T09:19:01.826Z,20.47
2018-10-21T09:21:30.665Z,20.30
2018-10-21T09:23:59.521Z,21.70
2018-10-21T09:26:28.366Z,23.07
2018-10-21T09:28:57.208Z,19.87
2018-10-21T09:31:26.047Z,21.37
2018-10-21T09:33:54.943Z,21.40
2018-10-21T09:36:23.733Z,20.73
2018-10-21T09:38:52.580Z,17.83
2018-10-21T09:41:21.421Z,19.77
2018-10-21T09:43:50.997Z,20.60
2018-10-21T09:46:19.841Z,20.88
2018-10-21T09:48:48.693Z,19.70
2018-10-21T09:51:17.545Z,18.17
2018-10-21T09:53:46.393Z,18.67
2018-10-21T09:56:15.977Z,17.63
2018-10-21T09:58:44.942Z,20.55
2018-10-21T10:03:49.939Z,17.67
2018-10-21T10:06:18.731Z,18.13
2018-10-21T10:08:48.312Z,14.43
2018-10-21T10:11:17.151Z,17.03
2018-10-21T10:13:46.000Z,15.00
2018-10-21T10:16:15.746Z,15.37
2018-10-21T10:18:44.417Z,13.53
2018-10-21T10:21:13.268Z,13.50
2018-10-21T10:23:42.118Z,12.83
2018-10-21T10:26:10.968Z,12.77
2018-10-21T10:28:39.828Z,13.70
2018-10-21T10:31:08.711Z,12.20
2018-10-21T10:33:37.525Z,14.77
2018-10-21T10:36:06.989Z,10.63
2018-10-21T10:38:35.814Z,11.37
2018-10-21T10:41:04.672Z,13.57
2018-10-21T10:43:33.507Z,12.98
2018-10-21T10:46:03.103Z,12.47
2018-10-21T10:48:31.923Z,12.05
2018-10-21T10:51:02.437Z,9.60
2018-10-21T10:53:31.227Z,9.00
2018-10-21T10:56:01.410Z,11.63
2018-10-21T10:58:29.666Z,11.30
2018-10-21T11:00:58.559Z,10.47
2018-10-21T11:03:30.570Z,7.47
2018-10-21T11:05:59.245Z,10.20
2018-10-21T11:08:28.102Z,8.67
2018-10-21T11:10:56.939Z,9.20
2018-10-21T11:13:25.774Z,7.80
2018-10-21T11:15:54.600Z,9.60
2018-10-21T11:18:23.429Z,7.33
2018-10-21T11:20:52.281Z,6.70
2018-10-21T11:23:21.122Z,6.07
2018-10-21T11:25:49.957Z,5.63
2018-10-21T11:28:19.582Z,5.07
2018-10-21T11:30:48.381Z,5.80
2018-10-21T11:33:17.228Z,5.87
2018-10-21T11:35:46.074Z,5.40
2018-10-21T11:38:14.907Z,3.63
2018-10-21T11:40:43.760Z,5.03
2018-10-21T11:43:12.620Z,3.23
2018-10-21T11:45:42.295Z,3.73
2018-10-21T11:48:11.003Z,2.70
2018-10-21T11:50:40.592Z,3.27
2018-10-21T11:53:09.443Z,3.67
2018-10-21T11:55:38.281Z,3.37
2018-10-21T11:58:07.240Z,2.27
2018-10-21T12:00:36.033Z,2.70
2018-10-21T12:03:04.862Z,3.73
2018-10-21T12:05:34.431Z,3.90
2018-10-21T12:08:03.265Z,2.10
2018-10-21T12:10:32.107Z,4.07
2018-10-21T12:13:00.951Z,3.27
2018-10-21T12:15:29.775Z,4.20
2018-10-21T12:17:58.607Z,2.17
2018-10-21T12:20:27.452Z,3.73
2018-10-21T12:22:56.317Z,3.63
2018-10-21T12:25:25.141Z,2.57
2018-10-21T12:27:53.962Z,2.80
2018-10-21T12:30:23.565Z,3.93
2018-10-21T12:32:52.394Z,2.10
2018-10-21T12:35:21.232Z,3.60
2018-10-21T12:37:50.654Z,2.97
2018-10-21T12:40:19.601Z,3.03
2018-10-21T12:42:48.325Z,2.80
2018-10-21T12:45:17.984Z,3.60
2018-10-21T12:47:46.726Z,3.47
2018-10-21T12:50:15.572Z,2.53
2018-10-21T12:52:44.462Z,3.73
2018-10-21T12:55:13.327Z,4.03
2018-10-21T12:57:42.890Z,3.47
2018-10-21T13:00:12.464Z,2.37
2018-10-21T13:02:41.295Z,7.37
2018-10-21T13:05:10.144Z,3.00
2018-10-21T13:07:38.986Z,3.00
2018-10-21T13:10:07.894Z,3.53
2018-10-21T13:12:36.648Z,2.97
2018-10-21T13:15:05.478Z,2.10
2018-10-21T13:17:34.317Z,2.10
2018-10-21T13:20:03.150Z,2.77
2018-10-21T13:22:31.994Z,2.17
2018-10-21T13:25:00.895Z,2.77
2018-10-21T13:27:29.657Z,2.27
2018-10-21T13:29:59.077Z,4.60
2018-10-21T13:32:27.910Z,4.17
2018-10-21T13:34:56.753Z,2.60
2018-10-21T13:37:25.626Z,4.37
2018-10-21T13:39:55.303Z,5.25
2018-10-21T13:42:24.074Z,3.87
2018-10-21T13:44:52.905Z,4.83
2018-10-21T13:47:21.739Z,3.77
2018-10-21T13:49:50.578Z,2.77
2018-10-21T13:52:19.592Z,3.93
2018-10-21T13:54:48.274Z,4.30
2018-10-21T13:57:17.113Z,4.27
2018-10-21T13:59:45.953Z,5.17
2018-10-21T14:02:14.801Z,3.53
2018-10-21T14:04:43.643Z,5.72
2018-10-21T14:07:13.241Z,5.20
2018-10-21T14:09:42.084Z,3.20
2018-10-21T14:12:10.928Z,5.60
2018-10-21T14:14:39.771Z,8.13
2018-10-21T14:17:08.616Z,4.53
2018-10-21T14:19:38.187Z,2.67
2018-10-21T14:22:07.092Z,3.83
2018-10-21T14:24:35.991Z,2.43
2018-10-21T14:27:05.477Z,2.97
2018-10-21T14:29:34.325Z,3.97
2018-10-21T14:32:03.153Z,6.30
2018-10-21T14:34:32.567Z,6.73
2018-10-21T14:37:01.859Z,6.43
2018-10-21T14:39:30.639Z,8.30
2018-10-21T14:41:59.477Z,5.87
2018-10-21T14:44:28.311Z,6.03
2018-10-21T14:46:57.142Z,3.63
2018-10-21T14:49:26.712Z,3.10
2018-10-21T14:51:55.569Z,5.53
2018-10-21T14:54:24.411Z,3.00
2018-10-21T14:56:53.252Z,4.17
2018-10-21T14:59:22.077Z,5.47
2018-10-21T15:01:50.921Z,4.43
2018-10-21T15:04:19.744Z,3.20
2018-10-21T15:06:48.574Z,4.00
2018-10-21T15:09:17.489Z,6.27
2018-10-21T15:11:46.268Z,5.20
2018-10-21T15:14:15.157Z,8.63
2018-10-21T15:16:43.975Z,4.53
2018-10-21T15:19:12.805Z,6.25
2018-10-21T15:21:42.370Z,6.47
2018-10-21T15:24:11.213Z,5.03
2018-10-21T15:26:40.067Z,7.60
2018-10-21T15:29:08.974Z,6.87
2018-10-21T15:31:37.731Z,5.10
2018-10-21T15:34:06.630Z,4.97
2018-10-21T15:36:35.423Z,3.83
2018-10-21T15:39:04.350Z,5.13
2018-10-21T15:41:33.270Z,3.10
2018-10-21T15:44:02.869Z,6.57
2018-10-21T15:46:31.658Z,3.90
2018-10-21T15:49:00.531Z,3.53
2018-10-21T15:51:29.368Z,2.27
2018-10-21T15:53:58.215Z,4.13
2018-10-21T15:56:27.048Z,3.80
2018-10-21T15:58:56.795Z,2.63
2018-10-21T16:01:25.428Z,4.70
2018-10-21T16:03:54.258Z,5.63
2018-10-21T16:06:23.896Z,4.27
2018-10-21T16:08:53.013Z,3.25
2018-10-21T16:11:21.855Z,3.62
2018-10-21T16:13:51.425Z,3.67
2018-10-21T16:16:20.315Z,3.90
2018-10-21T16:18:49.115Z,4.07
2018-10-21T16:21:18.135Z,2.30
2018-10-21T16:23:47.039Z,5.43
2018-10-21T16:26:15.852Z,6.63
2018-10-21T16:28:44.684Z,3.80
2018-10-21T16:31:13.555Z,4.20
2018-10-21T16:33:42.355Z,2.83
2018-10-21T16:36:11.196Z,4.83
2018-10-21T16:38:40.030Z,5.50
2018-10-21T16:41:08.856Z,6.17
2018-10-21T16:43:37.724Z,6.77
2018-10-21T16:46:06.555Z,6.70
2018-10-21T16:48:35.384Z,7.27
2018-10-21T16:51:04.287Z,6.97
2018-10-21T16:53:33.052Z,9.73
2018-10-21T16:56:01.951Z,11.83
2018-10-21T16:58:30.769Z,11.03
2018-10-21T17:01:00.387Z,9.03
2018-10-21T17:03:29.207Z,12.40
2018-10-21T17:05:58.068Z,9.80
2018-10-21T17:08:26.861Z,13.90
2018-10-21T17:10:55.746Z,13.87
2018-10-21T17:13:24.544Z,11.43
2018-10-21T17:15:53.395Z,14.90
2018-10-21T17:18:22.234Z,19.73
2018-10-21T17:20:51.075Z,18.77
2018-10-21T17:23:19.912Z,16.53
2018-10-21T17:25:48.767Z,18.40
2018-10-21T17:28:18.372Z,15.17
2018-10-21T17:30:47.963Z,15.20
2018-10-21T17:33:16.804Z,16.57
2018-10-21T17:35:45.645Z,19.00
2018-10-21T17:38:14.480Z,12.47
2018-10-21T17:40:43.403Z,16.00
2018-10-21T17:43:12.171Z,11.60
2018-10-21T17:45:41.009Z,15.77
2018-10-21T17:48:10.580Z,11.67
2018-10-21T17:50:39.454Z,12.30
2018-10-21T17:53:08.988Z,11.30
2018-10-21T17:55:37.836Z,12.40
2018-10-21T17:58:06.759Z,34.07
2018-10-21T18:00:35.552Z,13.13
2018-10-21T18:03:04.385Z,9.70
2018-10-21T18:05:33.952Z,8.77
2018-10-21T18:08:03.532Z,7.63
2018-10-21T18:10:32.381Z,6.37
2018-10-21T18:13:01.274Z,6.67
2018-10-21T18:15:30.071Z,5.47
2018-10-21T18:17:58.901Z,6.37
2018-10-21T18:20:27.777Z,7.40
2018-10-21T18:22:56.581Z,5.03
2018-10-21T18:25:25.416Z,5.50
2018-10-21T18:27:54.336Z,6.97
2018-10-21T18:30:23.871Z,5.40
2018-10-21T18:32:52.812Z,5.40
2018-10-21T18:35:21.559Z,5.23
2018-10-21T18:37:50.401Z,5.30
2018-10-21T18:40:19.387Z,5.85
2018-10-21T18:42:48.169Z,5.63
2018-10-21T18:45:16.913Z,6.63
2018-10-21T18:47:45.766Z,5.27
2018-10-21T18:50:14.615Z,6.23
2018-10-21T18:52:44.226Z,6.97
2018-10-21T18:55:13.099Z,7.70
2018-10-21T18:57:41.925Z,7.27
2018-10-21T19:00:10.783Z,5.77
2018-10-21T19:02:40.364Z,5.47
2018-10-21T19:05:09.205Z,9.00
2018-10-21T19:07:38.049Z,6.13
2018-10-21T19:10:06.946Z,7.07
2018-10-21T19:12:35.727Z,4.77
2018-10-21T19:15:04.577Z,7.90
2018-10-21T19:17:33.416Z,4.77
2018-10-21T19:20:02.262Z,5.23
2018-10-21T19:22:31.103Z,5.77
2018-10-21T19:25:00.758Z,6.13
2018-10-21T19:27:29.586Z,6.97
2018-10-21T19:29:58.417Z,4.87
2018-10-21T19:32:27.248Z,5.90
2018-10-21T19:34:56.087Z,5.37
2018-10-21T19:37:24.926Z,5.53
2018-10-21T19:39:53.780Z,6.37
2018-10-21T19:42:23.341Z,5.70
2018-10-21T19:44:52.770Z,5.23
2018-10-21T19:47:21.616Z,5.67
2018-10-21T19:49:50.480Z,4.83
2018-10-21T19:52:19.296Z,5.93
2018-10-21T19:54:48.145Z,5.77
2018-10-21T19:57:17.052Z,8.00
2018-10-21T19:59:45.882Z,8.20
2018-10-21T20:02:14.737Z,7.80
2018-10-21T20:04:43.551Z,6.83
2018-10-21T20:07:13.161Z,7.07
2018-10-21T20:09:41.972Z,7.73
2018-10-21T20:12:10.861Z,11.10
2018-10-21T20:14:39.650Z,11.60
2018-10-21T20:17:09.751Z,14.83
2018-10-21T20:19:38.606Z,9.97
2018-10-21T20:22:07.579Z,12.23
2018-10-21T20:24:36.480Z,11.17
2018-10-21T20:27:05.361Z,7.73
2018-10-21T20:29:35.131Z,8.70
2018-10-21T20:32:03.928Z,7.50
2018-10-21T20:34:33.504Z,8.87
2018-10-21T20:37:02.345Z,10.23
2018-10-21T20:39:31.192Z,7.85
2018-10-21T20:42:00.104Z,6.40
2018-10-21T20:44:28.885Z,8.43
2018-10-21T20:46:57.729Z,8.43
2018-10-21T20:49:26.559Z,6.70
2018-10-21T20:51:56.181Z,7.50
2018-10-21T20:54:25.001Z,6.45
2018-10-21T20:56:53.837Z,7.00
2018-10-21T20:59:23.426Z,6.00
2018-10-21T21:01:52.239Z,8.00
2018-10-21T21:04:21.832Z,7.73
2018-10-21T21:06:50.671Z,9.67
2018-10-21T21:09:19.762Z,10.13
2018-10-21T21:11:49.109Z,8.23
2018-10-21T21:14:17.940Z,10.38
2018-10-21T21:16:46.789Z,7.27
2018-10-21T21:19:15.629Z,11.00
2018-10-21T21:21:44.468Z,9.17
2018-10-21T21:24:13.327Z,8.40
2018-10-21T21:26:42.151Z,7.10
2018-10-21T21:29:11.736Z,8.57
2018-10-21T21:31:40.998Z,7.00
2018-10-21T21:34:09.872Z,7.43
2018-10-21T21:36:38.672Z,7.20
2018-10-21T21:39:07.504Z,9.03
2018-10-21T21:41:36.334Z,9.00
2018-10-21T21:44:05.919Z,9.70
2018-10-21T21:46:34.857Z,7.87
2018-10-21T21:49:04.387Z,10.77
2018-10-21T21:51:33.213Z,9.27
2018-10-21T21:54:02.092Z,7.83
2018-10-21T21:56:30.875Z,9.75
2018-10-21T21:59:00.473Z,10.70
2018-10-21T22:01:29.326Z,11.20
2018-10-21T22:03:58.255Z,8.85
2018-10-21T22:06:27.000Z,7.50
2018-10-21T22:08:55.829Z,8.60
2018-10-21T22:11:24.669Z,10.57
2018-10-21T22:13:53.507Z,11.12
2018-10-21T22:16:22.339Z,8.77
2018-10-21T22:18:51.166Z,10.20
2018-10-21T22:21:19.999Z,11.07
2018-10-21T22:23:49.577Z,9.93
2018-10-21T22:26:18.419Z,11.68
2018-10-21T22:28:47.263Z,10.43
2018-10-21T22:31:16.691Z,9.60
2018-10-21T22:33:46.263Z,10.90
2018-10-21T22:36:15.113Z,11.37
2018-10-21T22:38:44.676Z,11.47
2018-10-21T22:41:14.104Z,10.60
2018-10-21T22:43:43.675Z,9.67
2018-10-21T22:46:12.597Z,10.87
2018-10-21T22:48:41.340Z,10.80
2018-10-21T22:51:10.186Z,10.50
2018-10-21T22:53:39.027Z,13.70
2018-10-21T22:56:07.871Z,13.17
2018-10-21T22:58:36.704Z,11.97
2018-10-21T23:01:05.528Z,11.07
2018-10-21T23:03:35.100Z,9.50
2018-10-21T23:06:03.983Z,11.30
2018-10-21T23:08:33.510Z,11.07
2018-10-21T23:11:02.342Z,11.53
2018-10-21T23:13:31.164Z,11.60
2018-10-21T23:16:00.070Z,13.03
2018-10-21T23:18:28.960Z,12.53
2018-10-21T23:20:57.727Z,12.23
2018-10-21T23:23:26.583Z,12.57
2018-10-21T23:25:55.423Z,12.47
2018-10-21T23:28:24.258Z,11.23
2018-10-21T23:30:53.090Z,10.63
2018-10-21T23:33:21.916Z,11.57
2018-10-21T23:35:50.740Z,12.30
2018-10-21T23:38:19.581Z,11.00
2018-10-21T23:40:48.416Z,10.13
2018-10-21T23:43:17.243Z,10.80
2018-10-21T23:45:46.077Z,12.33
2018-10-21T23:48:14.982Z,11.10
2018-10-21T23:50:43.739Z,12.00
2018-10-21T23:53:12.565Z,9.87
2018-10-21T23:55:41.403Z,10.43
2018-10-21T23:58:10.324Z,11.60
